Flight Track Log - Related Links

Times and Time Zones

All times are in EDT time to prevent confusion due to time zone crossing. See the FDX1570 flight status page for this flight to view local times or setup timezone preferences in your user account.

Time Position Orientation Groundspeed Altitude Reporting Facility
EDT Latitude Longitude Course Direction KTS MPH feet Rate Location/Type
Thu 04:26:48 AM 35.0167 -89.9667 180° South 171 197 1,200  Level KMEM
Thu 04:27:42 AM 34.9667 -89.9667 180° South 206 237 2,400 1,872 Climbing KMEM
Thu 04:28:37 AM 34.9167 -89.9167 141° Southeast 298 343 4,600 2,700 Climbing KMEM
Thu 04:29:42 AM 34.9667 -89.8333 54° Northeast 277 319 7,800 2,408 Climbing KMEM
Thu 04:31:14 AM 35.0853 -89.7861 18° North 310 357 10,900 1,974 Climbing Memphis Center
Thu 04:32:14 AM 35.1789 -89.7397 22° Northeast 330 380 12,800 2,300 Climbing Memphis Center
Thu 04:33:14 AM 35.2747 -89.6933 22° Northeast 358 412 15,500 2,550 Climbing Memphis Center
Thu 04:34:14 AM 35.3767 -89.6467 20° North 376 433 17,900 2,100 Climbing Memphis Center
Thu 04:35:14 AM 35.4828 -89.5947 22° Northeast 388 447 19,700 2,250 Climbing Memphis Center
Thu 04:36:14 AM 35.5886 -89.5425 22° Northeast 398 458 22,400 2,400 Climbing Memphis Center
Thu 04:37:14 AM 35.6906 -89.4828 25° Northeast 409 471 24,500 1,900 Climbing Memphis Center
Thu 04:38:14 AM 35.7942 -89.4050 31° Northeast 404 465 26,200 1,600 Climbing Memphis Center
Thu 04:39:14 AM 35.8892 -89.2989 42° Northeast 447 514 27,700 1,600 Climbing Memphis Center
Thu 04:40:14 AM 35.9608 -89.1594 58° Northeast 454 522 29,400 1,950 Climbing Memphis Center
Thu 04:41:14 AM 36.0303 -89.0197 58° Northeast 466 536 31,600 2,050 Climbing Memphis Center
Thu 04:42:14 AM 36.0997 -88.8825 58° Northeast 471 542 33,500 777 Climbing Memphis Center
Thu 04:48:11 AM 36.5240 -88.1070 58° Northeast 486 559 37,000 528 Climbing FlightAware ADS-B
Thu 04:48:52 AM 36.5990 -87.9690 56° Northeast 489 563 37,000  Level FlightAware ADS-B
Thu 04:49:36 AM 36.6530 -87.8690 56° Northeast 489 563 37,000  Level FlightAware ADS-B
Thu 04:50:20 AM 36.7090 -87.7630 57° Northeast 488 562 37,000  Level FlightAware ADS-B
Thu 04:50:56 AM 36.7540 -87.6820 55° Northeast 487 560 37,000  Level FlightAware ADS-B
Thu 04:51:44 AM 36.8150 -87.5680 56° Northeast 486 559 37,000  Level FlightAware ADS-B
Thu 04:52:24 AM 36.8630 -87.4770 57° Northeast 484 557 37,000  Level FlightAware ADS-B
Thu 04:53:05 AM 36.9120 -87.3860 56° Northeast 485 558 37,000  Level FlightAware ADS-B
Thu 04:53:50 AM 36.9710 -87.2730 57° Northeast 485 558 37,000  Level FlightAware ADS-B
Thu 04:54:32 AM 37.0200 -87.1800 57° Northeast 485 558 37,000  Level FlightAware ADS-B
Thu 04:55:08 AM 37.0650 -87.0930 57° Northeast 485 558 37,000  Level FlightAware ADS-B
Thu 04:55:54 AM 37.1230 -86.9850 56° Northeast 485 558 37,000  Level FlightAware ADS-B
Thu 04:56:20 AM 37.1552 -86.9235 57° Northeast 485 558 37,000  Level FlightAware ADS-B
Thu 04:57:23 AM 37.2328 -86.7750 57° Northeast 488 562 37,000  Level FlightAware ADS-B
Thu 04:57:57 AM 37.2747 -86.6942 57° Northeast 489 563 37,000  Level FlightAware ADS-B
Thu 04:58:44 AM 37.3330 -86.5820 57° Northeast 490 564 37,000  Level FlightAware ADS-B
Thu 04:59:24 AM 37.3824 -86.4865 57° Northeast 491 565 37,000  Level FlightAware ADS-B
Thu 04:59:59 AM 37.4230 -86.4050 58° Northeast 491 565 37,000  Level FlightAware ADS-B
Thu 05:01:02 AM 37.5036 -86.2509 57° Northeast 491 565 37,000  Level FlightAware ADS-B
Thu 05:01:38 AM 37.5491 -86.1616 57° Northeast 493 567 37,000  Level FlightAware ADS-B
Thu 05:02:10 AM 37.5882 -86.0845 57° Northeast 492 566 37,000  Level FlightAware ADS-B
Thu 05:02:44 AM 37.6294 -86.0027 58° Northeast 492 566 37,000  Level FlightAware ADS-B
Thu 05:03:29 AM 37.6845 -85.8946 57° Northeast 488 562 37,000  Level FlightAware ADS-B
Thu 05:04:00 AM 37.7217 -85.8227 57° Northeast 486 559 37,000  Level FlightAware ADS-B
Thu 05:04:58 AM 37.7910 -85.6840 58° Northeast 483 556 37,000  Level FlightAware ADS-B
Thu 05:05:44 AM 37.8470 -85.5720 58° Northeast 481 554 37,000  Level FlightAware ADS-B
Thu 05:06:26 AM 37.8970 -85.4730 57° Northeast 481 554 37,000  Level FlightAware ADS-B
Thu 05:07:04 AM 37.9420 -85.3840 57° Northeast 482 555 37,000  Level FlightAware ADS-B
Thu 05:07:48 AM 37.9940 -85.2790 58° Northeast 483 556 37,000  Level FlightAware ADS-B
Thu 05:08:27 AM 38.0408 -85.1859 57° Northeast 484 557 37,000  Level FlightAware ADS-B
Thu 05:08:57 AM 38.0771 -85.1114 58° Northeast 485 558 37,000  Level FlightAware ADS-B
Thu 05:09:27 AM 38.1132 -85.0390 58° Northeast 485 558 37,000  Level FlightAware ADS-B
Thu 05:10:14 AM 38.1687 -84.9272 58° Northeast 490 564 37,000  Level FlightAware ADS-B
Thu 05:10:45 AM 38.2063 -84.8490 59° Northeast 492 566 37,000  Level FlightAware ADS-B
Thu 05:11:32 AM 38.2620 -84.7360 58° Northeast 495 570 37,000  Level FlightAware ADS-B
Thu 05:11:56 AM 38.2920 -84.6740 58° Northeast 497 572 37,000  Level FlightAware ADS-B
Thu 05:12:34 AM 38.3380 -84.5790 58° Northeast 499 574 37,000  Level FlightAware ADS-B
Thu 05:13:18 AM 38.3920 -84.4680 58° Northeast 503 579 37,000  Level FlightAware ADS-B
Thu 05:13:57 AM 38.4370 -84.3770 58° Northeast 505 581 37,000  Level FlightAware ADS-B
Thu 05:14:45 AM 38.4940 -84.2600 58° Northeast 508 585 37,000  Level FlightAware ADS-B
Thu 05:15:32 AM 38.5560 -84.1320 58° Northeast 511 588 37,000  Level FlightAware ADS-B
Thu 05:16:22 AM 38.6090 -84.0230 58° Northeast 511 588 37,000  Level FlightAware ADS-B
Thu 05:17:15 AM 38.6830 -83.8660 59° Northeast 512 589 37,000  Level FlightAware ADS-B
Thu 05:17:57 AM 38.7350 -83.7540 59° Northeast 511 588 37,000  Level FlightAware ADS-B
Thu 05:18:40 AM 38.7890 -83.6410 58° Northeast 510 587 37,000  Level FlightAware ADS-B
Thu 05:19:24 AM 38.8420 -83.5290 59° Northeast 510 587 37,000  Level FlightAware ADS-B
Thu 05:20:04 AM 38.8910 -83.4260 59° Northeast 508 585 37,000  Level FlightAware ADS-B
Thu 05:20:42 AM 38.9350 -83.3300 59° Northeast 508 585 37,000  Level FlightAware ADS-B
Thu 05:21:30 AM 38.9950 -83.2010 59° Northeast 505 581 37,000  Level FlightAware ADS-B
Thu 05:22:08 AM 39.0410 -83.1040 59° Northeast 504 580 37,000  Level FlightAware ADS-B
Thu 05:22:53 AM 39.0940 -82.9880 59° Northeast 502 578 37,000  Level FlightAware ADS-B
Thu 05:23:35 AM 39.1430 -82.8830 59° Northeast 499 574 37,000  Level FlightAware ADS-B
Thu 05:24:13 AM 39.1880 -82.7860 59° Northeast 495 570 37,000  Level FlightAware ADS-B
Thu 05:24:59 AM 39.2420 -82.6700 59° Northeast 493 567 37,000  Level FlightAware ADS-B
Thu 05:25:39 AM 39.2880 -82.5690 60° Northeast 490 564 37,000  Level FlightAware ADS-B
Thu 05:26:21 AM 39.3370 -82.4610 60° Northeast 488 562 37,000  Level FlightAware ADS-B
Thu 05:27:01 AM 39.3820 -82.3600 60° Northeast 488 562 37,000  Level FlightAware ADS-B
Thu 05:27:43 AM 39.4300 -82.2570 59° Northeast 492 566 37,000  Level FlightAware ADS-B
Thu 05:28:29 AM 39.4830 -82.1390 60° Northeast 496 571 37,000  Level FlightAware ADS-B
Thu 05:29:11 AM 39.5320 -82.0290 60° Northeast 500 575 37,000  Level FlightAware ADS-B
Thu 05:29:53 AM 39.5810 -81.9220 59° Northeast 502 578 37,000  Level FlightAware ADS-B
Thu 05:33:31 AM 39.8180 -81.3880 60° Northeast 507 583 37,000  Level FlightAware ADS-B
Thu 05:34:16 AM 39.8880 -81.2260 61° Northeast 508 585 37,000  Level FlightAware ADS-B
Thu 05:35:00 AM 39.9390 -81.1120 60° Northeast 509 586 37,000  Level FlightAware ADS-B
Thu 05:35:42 AM 39.9880 -80.9970 61° Northeast 510 587 37,000  Level FlightAware ADS-B
Thu 05:36:27 AM 40.0400 -80.8790 60° Northeast 511 588 37,000  Level FlightAware ADS-B
Thu 05:37:06 AM 40.0870 -80.7710 60° Northeast 512 589 37,000  Level FlightAware ADS-B
Thu 05:37:43 AM 40.1290 -80.6740 60° Northeast 513 590 37,000  Level FlightAware ADS-B
Thu 05:38:19 AM 40.1700 -80.5770 61° Northeast 514 592 37,000  Level FlightAware ADS-B
Thu 05:39:01 AM 40.2190 -80.4630 61° Northeast 514 592 37,000  Level FlightAware ADS-B
Thu 05:39:40 AM 40.2610 -80.3650 61° Northeast 514 592 37,000  Level FlightAware ADS-B
Thu 05:40:22 AM 40.3140 -80.2400 61° Northeast 514 592 37,000  Level FlightAware ADS-B
Thu 05:40:58 AM 40.3550 -80.1420 61° Northeast 514 592 37,000  Level FlightAware ADS-B
Thu 05:41:43 AM 40.4060 -80.0220 61° Northeast 513 590 37,000  Level FlightAware ADS-B
Thu 05:42:26 AM 40.4550 -79.9050 61° Northeast 511 588 37,000  Level FlightAware ADS-B
Thu 05:43:52 AM 40.5530 -79.6690 61° Northeast 508 585 37,000  Level FlightAware ADS-B
Thu 05:44:37 AM 40.6040 -79.5490 61° Northeast 506 582 37,000  Level FlightAware ADS-B
Thu 05:45:16 AM 40.6460 -79.4470 61° Northeast 502 578 37,000  Level FlightAware ADS-B
Thu 05:46:00 AM 40.6960 -79.3260 61° Northeast 500 575 37,000  Level FlightAware ADS-B
Thu 05:46:40 AM 40.7380 -79.2220 62° Northeast 496 571 37,000  Level FlightAware ADS-B
Thu 05:47:24 AM 40.7860 -79.1060 61° Northeast 493 567 37,000  Level FlightAware ADS-B
Thu 05:48:04 AM 40.8310 -78.9950 62° Northeast 491 565 37,000  Level FlightAware ADS-B
Thu 05:48:40 AM 40.8690 -78.9000 62° Northeast 489 563 37,000  Level FlightAware ADS-B
Thu 05:49:29 AM 40.9150 -78.7900 61° Northeast 487 560 37,000  Level FlightAware ADS-B
Thu 05:49:59 AM 40.9470 -78.7080 63° Northeast 485 558 37,000  Level FlightAware ADS-B
Thu 05:50:34 AM 40.9840 -78.6160 62° Northeast 486 559 37,000  Level FlightAware ADS-B
Thu 05:51:24 AM 41.0340 -78.4900 62° Northeast 486 559 37,000  Level FlightAware ADS-B
Thu 05:52:04 AM 41.0780 -78.3800 62° Northeast 485 558 37,000  Level FlightAware ADS-B
Thu 05:53:04 AM 41.1410 -78.2220 62° Northeast 486 559 37,000  Level FlightAware ADS-B
Thu 05:53:37 AM 41.1819 -78.1188 62° Northeast 488 562 37,000 -158 Level FlightAware ADS-B
Thu 05:54:20 AM 41.2262 -78.0077 62° Northeast 487 560 36,800 -1,161 Descending FlightAware ADS-B
Thu 05:55:10 AM 41.2784 -77.8742 62° Northeast 487 560 35,200 -1,820 Descending FlightAware ADS-B
Thu 05:55:49 AM 41.3120 -77.7870 63° Northeast 480 552 34,100 -1,857 Descending FlightAware ADS-B
Thu 05:56:34 AM 41.3590 -77.6660 63° Northeast 467 537 32,600 -1,976 Descending FlightAware ADS-B
Thu 05:57:14 AM 41.3970 -77.5700 62° Northeast 460 529 31,300 -2,025 Descending FlightAware ADS-B
Thu 05:57:54 AM 41.4410 -77.4560 63° Northeast 450 518 29,900 -1,663 Descending FlightAware ADS-B
Thu 05:58:37 AM 41.4810 -77.3520 63° Northeast 435 501 29,000 -491 Descending FlightAware ADS-B
Thu 05:59:44 AM 41.5420 -77.1920 63° Northeast 484 557 29,000  Level FlightAware ADS-B
Thu 06:00:29 AM 41.5880 -77.0720 63° Northeast 508 585 29,000  Level FlightAware ADS-B
Thu 06:01:04 AM 41.6230 -76.9820 62° Northeast 516 594 29,000 -225 Level FlightAware ADS-B
Thu 06:01:49 AM 41.6740 -76.8460 63° Northeast 508 585 28,700 -1,067 Descending FlightAware ADS-B
Thu 06:02:34 AM 41.7210 -76.7230 63° Northeast 491 565 27,400 -1,835 Descending FlightAware ADS-B
Thu 06:03:14 AM 41.7570 -76.6260 64° Northeast 481 554 26,100 -2,259 Descending FlightAware ADS-B
Thu 06:03:59 AM 41.8060 -76.4930 64° Northeast 478 550 24,200 -1,482 Descending FlightAware ADS-B
Thu 06:04:39 AM 41.8460 -76.3870 63° Northeast 481 554 24,000 -150 Descending FlightAware ADS-B
Thu 06:05:19 AM 41.8860 -76.2790 64° Northeast 486 559 24,000  Level FlightAware ADS-B
Thu 06:06:04 AM 41.9300 -76.1600 64° Northeast 489 563 24,000  Level FlightAware ADS-B
Thu 06:06:44 AM 41.9710 -76.0510 63° Northeast 487 560 24,000  Level FlightAware ADS-B
Thu 06:07:31 AM 42.0190 -75.9190 64° Northeast 482 555 24,000  Level FlightAware ADS-B
Thu 06:08:08 AM 42.0530 -75.8250 64° Northeast 481 554 24,000  Level FlightAware ADS-B
Thu 06:08:48 AM 42.0970 -75.7040 64° Northeast 481 554 24,000 -63 Level FlightAware ADS-B
Thu 06:09:43 AM 42.1500 -75.5560 64° Northeast 481 554 23,900 -1,059 Descending FlightAware ADS-B
Thu 06:10:30 AM 42.1960 -75.4290 64° Northeast 481 554 22,200 -1,107 Descending FlightAware ADS-B
Thu 06:11:26 AM 42.2500 -75.2790 64° Northeast 472 543 22,000 -129 Descending FlightAware ADS-B
Thu 06:12:03 AM 42.2850 -75.1810 64° Northeast 469 540 22,000  Level FlightAware ADS-B
Thu 06:12:50 AM 42.3220 -75.0800 64° Northeast 470 541 22,000  Level FlightAware ADS-B
Thu 06:13:37 AM 42.3600 -74.9750 64° Northeast 470 541 22,000  Level FlightAware ADS-B
Thu 06:14:14 AM 42.3900 -74.8920 64° Northeast 470 541 22,000 -5,831 Level FlightAware ADS-B
Thu 06:14:48 AM 42.4242 -74.7858 64° Northeast 445 512 15,100 -6,191 Descending Boston Center
Thu 06:15:48 AM 42.4772 -74.6331 65° Northeast 411 473 12,300 -1,850 Descending Boston Center
Thu 06:16:48 AM 42.5189 -74.5161 64° Northeast 392 451 11,400 -1,100 Descending Boston Center
Thu 06:17:48 AM 42.5503 -74.3903 71° East 334 384 10,100 -1,600 Descending Boston Center
Thu 06:18:48 AM 42.5500 -74.2889 90° East 299 344 8,200 -2,200 Descending Boston Center
Thu 06:19:48 AM 42.5519 -74.1733 89° East 289 333 5,700 -2,200 Descending Boston Center
Thu 06:20:48 AM 42.5531 -74.0861 89° East 268 308 3,800 -1,150 Descending Boston Center
Thu 06:21:48 AM 42.5544 -73.9903 89° East 243 280 3,400 -300 Descending Boston Center
Thu 06:22:48 AM 42.5553 -73.9256 89° East 205 236 3,200 -200 Descending Boston Center
Thu 06:23:48 AM 42.5542 -73.8467 91° East 191 220 3,000 -100 Descending Boston Center
Thu 06:24:48 AM 42.5736 -73.7989 61° Northeast 171 197 3,000 -358 Level Boston Center
Thu 06:26:02 AM 42.6361 -73.8003 359° North 169 194 2,200 -350 Descending Boston Center
Thu 06:26:48 AM 42.6572 -73.7811 34° Northeast 130 150 2,300 11,208 Climbing Boston Center
Thu 06:27:48 AM 42.6886 -73.7592 27° Northeast 130 150 22,000 9,850 Climbing Boston Center
Thu 06:28:48 AM 42.7203 -73.7400 24° Northeast 130 150 22,000  Level Boston Center
Thu 06:29:48 AM 42.7517 -73.7181 27° Northeast 130 150 22,000  Level Boston Center
Thu 06:31:00 AM 42.7491 -73.8020 268° West  Level Estimated
Thu 06:38:00 AM 42.7491 -73.8020 304° West  Level Estimated

Login

Don't have an account? Register now (free) for customized features, flight alerts, and more!